Time;durP1;ratioP1;P1;durP2;ratioP2;P2;SDS_P1;SDS_P2;PMS_P1;PMS_P2;Temp;Humidity;BMP_temperature;BMP_pressure;BME280_temperature;BME280_humidity;BME280_pressure;Samples;Min_cycle;Max_cycle;Signal;HPM_P1;HPM_P2
2023/09/24 20:21:00;;;;;;;8.15;4.18;;;;;;;;;;5069352;28;20689;-85
2023/09/24 20:23:32;;;;;;;10.80;4.25;;;;;;;;;;5063988;28;20227;-85
2023/09/24 20:25:59;;;;;;;11.98;4.97;;;;;;;;;;5065158;28;20226;-85
2023/09/24 20:28:25;;;;;;;9.32;4.40;;;;;;;;;;5065229;28;20482;-85
2023/09/24 20:30:58;;;;;;;4.20;3.80;;;;;;;;;;5065318;28;20647;-83
2023/09/24 20:33:26;;;;;;;4.70;4.28;;;;;;;;;;5067113;28;20229;-85
2023/09/24 20:35:53;;;;;;;6.45;4.18;;;;;;;;;;5065540;28;20306;-85
2023/09/24 20:38:22;;;;;;;8.85;4.00;;;;;;;;;;5065003;28;20269;-83
2023/09/24 20:40:48;;;;;;;6.18;4.45;;;;;;;;;;5065109;28;20356;-87
2023/09/24 20:43:15;;;;;;;6.10;3.85;;;;;;;;;;5066034;28;20269;-84
2023/09/24 20:45:53;;;;;;;7.10;4.25;;;;;;;;;;5065253;28;20226;-84
2023/09/24 20:48:24;;;;;;;5.13;4.70;;;;;;;;;;5065578;28;20603;-84
2023/09/24 20:50:51;;;;;;;8.98;3.92;;;;;;;;;;5065206;28;20230;-84
2023/09/24 20:53:18;;;;;;;10.05;4.60;;;;;;;;;;5063945;28;20280;-83
2023/09/24 20:55:47;;;;;;;9.88;4.30;;;;;;;;;;5064704;28;20301;-86
2023/09/24 20:58:13;;;;;;;4.75;4.35;;;;;;;;;;5064461;28;20226;-85
2023/09/24 21:00:42;;;;;;;7.20;4.60;;;;;;;;;;5063784;28;20255;-84
2023/09/24 21:03:09;;;;;;;7.32;4.15;;;;;;;;;;5062062;28;20234;-85
2023/09/24 21:05:36;;;;;;;7.00;4.50;;;;;;;;;;5066287;28;20207;-85
2023/09/24 21:08:04;;;;;;;7.97;4.60;;;;;;;;;;5065174;28;20643;-85
2023/09/24 21:10:31;;;;;;;8.65;4.80;;;;;;;;;;5065652;28;20199;-85
2023/09/24 21:13:02;;;;;;;8.30;4.43;;;;;;;;;;5065043;28;20730;-85
2023/09/24 21:15:29;;;;;;;7.30;4.05;;;;;;;;;;5065578;28;20226;-84
2023/09/24 21:17:56;;;;;;;4.53;3.85;;;;;;;;;;5065219;28;20250;-85
2023/09/24 21:20:24;;;;;;;6.00;4.00;;;;;;;;;;5048334;28;20243;-85
2023/09/24 21:22:51;;;;;;;9.80;4.40;;;;;;;;;;5049019;28;20537;-85
2023/09/24 21:25:19;;;;;;;6.32;3.60;;;;;;;;;;5045898;28;20281;-87
2023/09/24 21:27:46;;;;;;;4.95;4.15;;;;;;;;;;5057077;28;20188;-84
2023/09/24 21:30:14;;;;;;;7.30;4.20;;;;;;;;;;5043723;28;20277;-84
2023/09/24 21:32:41;;;;;;;5.18;3.63;;;;;;;;;;5032666;28;20200;-85
2023/09/24 21:35:08;;;;;;;4.03;3.22;;;;;;;;;;5028593;28;20204;-84
2023/09/24 21:37:36;;;;;;;7.57;4.20;;;;;;;;;;5032281;28;20230;-83
2023/09/24 21:40:03;;;;;;;5.75;3.35;;;;;;;;;;5031514;28;20627;-82
2023/09/24 21:42:29;;;;;;;6.55;2.88;;;;;;;;;;5031230;28;20246;-83
2023/09/24 21:45:00;;;;;;;2.63;2.20;;;;;;;;;;5030117;28;20295;-83
2023/09/24 21:47:28;;;;;;;8.77;2.55;;;;;;;;;;5031309;28;20232;-82
2023/09/24 21:49:55;;;;;;;6.15;3.03;;;;;;;;;;5031430;28;20227;-83
2023/09/24 21:52:22;;;;;;;3.17;1.80;;;;;;;;;;5030603;28;20275;-83
2023/09/24 21:54:49;;;;;;;3.28;2.55;;;;;;;;;;5031146;28;20200;-83
2023/09/24 21:57:17;;;;;;;2.20;2.00;;;;;;;;;;5031136;28;20203;-83
2023/09/24 21:59:44;;;;;;;3.45;2.05;;;;;;;;;;5029250;28;20240;-82
2023/09/24 22:02:11;;;;;;;2.63;2.33;;;;;;;;;;5029762;28;20544;-81
2023/09/24 22:04:40;;;;;;;2.35;2.13;;;;;;;;;;5031337;28;20585;-82
2023/09/24 22:07:06;;;;;;;6.32;2.28;;;;;;;;;;5030214;28;20211;-83
2023/09/24 22:09:33;;;;;;;2.80;2.50;;;;;;;;;;5031194;28;20204;-82
2023/09/24 22:12:00;;;;;;;2.47;2.35;;;;;;;;;;5031067;28;20250;-83
2023/09/24 22:14:27;;;;;;;5.25;2.50;;;;;;;;;;5030120;28;20212;-82
2023/09/24 22:16:54;;;;;;;2.17;2.08;;;;;;;;;;5031216;28;20934;-83
2023/09/24 22:19:21;;;;;;;2.72;2.13;;;;;;;;;;5038888;28;20231;-84
2023/09/24 22:21:49;;;;;;;3.40;2.88;;;;;;;;;;5050808;28;20187;-82
2023/09/24 22:24:17;;;;;;;2.30;2.10;;;;;;;;;;5051394;28;20249;-82
2023/09/24 22:26:44;;;;;;;7.05;2.17;;;;;;;;;;5052335;28;20254;-83
2023/09/24 22:29:11;;;;;;;6.40;2.20;;;;;;;;;;5051205;28;20241;-83
2023/09/24 22:31:38;;;;;;;6.53;2.40;;;;;;;;;;5051725;28;20203;-82
2023/09/24 22:34:05;;;;;;;3.88;2.47;;;;;;;;;;5051040;28;20203;-81
2023/09/24 22:36:32;;;;;;;4.30;2.47;;;;;;;;;;5050274;28;20305;-82
2023/09/24 22:39:00;;;;;;;9.18;2.60;;;;;;;;;;5050509;28;20208;-82
2023/09/24 22:41:27;;;;;;;2.75;2.55;;;;;;;;;;5050663;28;20231;-83
2023/09/24 22:43:54;;;;;;;4.20;2.50;;;;;;;;;;5048079;28;20368;-82
2023/09/24 22:46:20;;;;;;;5.55;2.53;;;;;;;;;;5050871;28;20244;-84
2023/09/24 22:48:46;;;;;;;2.78;2.58;;;;;;;;;;5050608;28;20237;-81
2023/09/24 22:51:13;;;;;;;3.63;2.22;;;;;;;;;;5049859;28;20208;-81
2023/09/24 22:53:42;;;;;;;2.75;2.20;;;;;;;;;;5049866;28;20204;-83
2023/09/24 22:56:10;;;;;;;2.50;2.30;;;;;;;;;;5050845;28;20191;-83
2023/09/24 22:58:37;;;;;;;2.92;2.60;;;;;;;;;;5048789;28;20246;-82
2023/09/24 23:01:05;;;;;;;3.22;2.42;;;;;;;;;;5049906;28;20227;-85
2023/09/24 23:03:41;;;;;;;6.30;2.58;;;;;;;;;;5049303;28;20207;-82
2023/09/24 23:06:07;;;;;;;2.78;1.98;;;;;;;;;;5049071;28;20626;-84
2023/09/24 23:08:34;;;;;;;7.35;2.85;;;;;;;;;;5047574;28;20730;-82
2023/09/24 23:11:02;;;;;;;2.70;1.92;;;;;;;;;;5049093;28;20199;-83
2023/09/24 23:13:30;;;;;;;3.70;2.83;;;;;;;;;;5049186;28;20230;-84
2023/09/24 23:15:57;;;;;;;3.53;2.10;;;;;;;;;;5049249;28;20695;-83
2023/09/24 23:18:24;;;;;;;1.90;1.83;;;;;;;;;;5049164;28;20280;-84
2023/09/24 23:20:51;;;;;;;4.57;2.40;;;;;;;;;;5009120;28;20240;-83
2023/09/24 23:23:18;;;;;;;2.38;2.08;;;;;;;;;;5008642;28;20213;-84
2023/09/24 23:25:44;;;;;;;3.30;3.00;;;;;;;;;;5009321;28;20764;-83
2023/09/24 23:28:13;;;;;;;4.88;2.47;;;;;;;;;;5008593;28;20235;-83
2023/09/24 23:30:42;;;;;;;4.32;2.33;;;;;;;;;;5009680;28;20208;-84
2023/09/24 23:33:11;;;;;;;3.95;2.58;;;;;;;;;;5009179;28;20201;-84
2023/09/24 23:35:41;;;;;;;5.05;2.55;;;;;;;;;;5010615;28;20204;-86
2023/09/24 23:38:08;;;;;;;2.90;2.65;;;;;;;;;;5007257;28;20717;-86
2023/09/24 23:40:35;;;;;;;3.80;2.17;;;;;;;;;;5009697;28;20252;-86
2023/09/24 23:43:04;;;;;;;3.00;2.80;;;;;;;;;;5008932;28;20192;-86
2023/09/24 23:45:35;;;;;;;2.63;2.15;;;;;;;;;;5009504;28;20212;-86
2023/09/24 23:48:06;;;;;;;8.18;2.78;;;;;;;;;;5010093;28;20284;-85
2023/09/24 23:50:34;;;;;;;3.78;2.25;;;;;;;;;;5008877;28;20208;-84
2023/09/24 23:53:03;;;;;;;2.20;2.10;;;;;;;;;;5009187;28;20696;-84
2023/09/24 23:55:31;;;;;;;1.98;1.92;;;;;;;;;;5009317;28;20533;-84
2023/09/24 23:57:58;;;;;;;4.50;2.60;;;;;;;;;;5008728;28;20201;-85
